Time;durP1;ratioP1;P1;durP2;ratioP2;P2;SDS_P1;SDS_P2;PMS_P1;PMS_P2;Temp;Humidity;BMP_temperature;BMP_pressure;BME280_temperature;BME280_humidity;BME280_pressure;Samples;Min_cycle;Max_cycle;Signal;HPM_P1;HPM_P2
2023/05/03 00:01:35;;;;;;;8.03;4.60;;;6.30;1.00;;;;;;4996446;28;20197;-90
2023/05/03 00:04:03;;;;;;;7.90;4.20;;;6.20;1.00;;;;;;4992816;28;20303;-90
2023/05/03 00:06:30;;;;;;;9.30;4.27;;;6.10;1.00;;;;;;4994946;28;20203;-90
2023/05/03 00:08:58;;;;;;;9.60;4.23;;;6.00;1.00;;;;;;4995657;28;20215;-89
2023/05/03 00:11:25;;;;;;;7.07;4.70;;;6.00;1.00;;;;;;4995892;28;20657;-90
2023/05/03 00:13:52;;;;;;;8.23;4.47;;;5.90;1.00;;;;;;4995932;28;20636;-90
2023/05/03 00:16:19;;;;;;;8.93;4.47;;;5.80;1.00;;;;;;4996184;28;20223;-90
2023/05/03 00:18:46;;;;;;;7.10;4.70;;;5.70;1.00;;;;;;4995961;28;20197;-90
2023/05/03 00:21:12;;;;;;;7.13;4.50;;;5.70;1.00;;;;;;4995403;28;20203;-90
2023/05/03 00:23:39;;;;;;;9.10;4.57;;;5.60;1.00;;;;;;4995778;28;20196;-90
2023/05/03 00:26:07;;;;;;;8.07;4.23;;;5.50;1.00;;;;;;4995922;28;20569;-89
2023/05/03 00:28:34;;;;;;;10.47;4.70;;;5.50;1.00;;;;;;4979675;28;20213;-89
2023/05/03 00:31:07;;;;;;;8.13;4.60;;;5.40;1.00;;;;;;4976296;28;20684;-89
2023/05/03 00:33:34;;;;;;;7.50;4.47;;;5.40;1.00;;;;;;4994223;28;20199;-89
2023/05/03 00:36:07;;;;;;;6.57;4.07;;;5.40;1.00;;;;;;4995628;28;20219;-90
2023/05/03 00:38:34;;;;;;;7.47;4.20;;;5.40;1.00;;;;;;4995243;28;20189;-90
2023/05/03 00:41:01;;;;;;;7.10;4.13;;;5.40;1.00;;;;;;4995457;28;20234;-90
2023/05/03 00:43:32;;;;;;;9.17;3.77;;;5.30;1.00;;;;;;4995441;28;20210;-89
2023/05/03 00:46:02;;;;;;;8.40;4.10;;;5.30;1.00;;;;;;4995687;28;20198;-89
2023/05/03 00:48:29;;;;;;;10.50;4.10;;;5.30;1.00;;;;;;4995145;28;20224;-90
2023/05/03 00:50:58;;;;;;;6.70;3.33;;;5.20;1.00;;;;;;4994816;28;20197;-89
2023/05/03 00:53:27;;;;;;;8.80;4.00;;;5.30;1.00;;;;;;4995102;28;20199;-89
2023/05/03 00:55:55;;;;;;;6.37;3.57;;;5.30;1.00;;;;;;4995166;28;20200;-90
2023/05/03 00:58:22;;;;;;;9.23;4.30;;;5.20;1.00;;;;;;4995164;28;20197;-89
2023/05/03 01:00:50;;;;;;;7.53;4.13;;;5.30;1.00;;;;;;4995265;28;20678;-90
2023/05/03 01:03:17;;;;;;;7.17;4.10;;;5.30;1.00;;;;;;4995113;28;20197;-90
2023/05/03 01:05:53;;;;;;;7.07;4.10;;;5.30;1.00;;;;;;4994518;28;20209;-89
2023/05/03 01:08:28;;;;;;;7.77;3.87;;;5.20;1.00;;;;;;4995116;28;20221;-90
2023/05/03 01:11:02;;;;;;;8.97;3.83;;;5.20;1.00;;;;;;4995082;28;20202;-90
2023/05/03 01:13:41;;;;;;;6.40;4.40;;;5.20;1.00;;;;;;4996194;28;20205;-89
2023/05/03 01:16:18;;;;;;;7.83;4.33;;;5.20;1.00;;;;;;4995044;28;20279;-90
2023/05/03 01:18:48;;;;;;;8.17;4.10;;;5.10;1.00;;;;;;4992616;28;20194;-89
2023/05/03 01:21:17;;;;;;;10.20;4.17;;;5.10;1.00;;;;;;4994669;28;20531;-89
2023/05/03 01:23:54;;;;;;;6.63;4.07;;;5.10;1.00;;;;;;4992691;28;20692;-85
2023/05/03 01:26:23;;;;;;;6.70;3.47;;;5.00;1.00;;;;;;4992842;28;20198;-85
2023/05/03 01:28:50;;;;;;;8.30;3.53;;;5.00;1.00;;;;;;4993166;28;20207;-85
2023/05/03 01:31:23;;;;;;;9.23;5.20;;;5.00;1.00;;;;;;4993045;28;20202;-84
2023/05/03 01:33:59;;;;;;;23.00;13.23;;;5.00;1.00;;;;;;4991843;28;20668;-85
2023/05/03 01:36:31;;;;;;;8.07;4.10;;;5.00;1.00;;;;;;4992831;28;20566;-85
2023/05/03 01:39:01;;;;;;;6.83;3.63;;;5.00;1.00;;;;;;4992112;28;20191;-84
2023/05/03 01:41:30;;;;;;;5.40;3.50;;;4.90;1.00;;;;;;4992775;28;20229;-85
2023/05/03 01:43:58;;;;;;;6.77;3.63;;;4.90;1.00;;;;;;4993162;28;20199;-85
2023/05/03 01:46:25;;;;;;;10.07;3.50;;;4.90;1.00;;;;;;4990424;28;20196;-85
2023/05/03 01:48:51;;;;;;;8.40;3.80;;;4.80;1.00;;;;;;4993110;28;20224;-85
2023/05/03 01:51:18;;;;;;;9.20;3.77;;;4.80;1.00;;;;;;4992593;28;20206;-85
2023/05/03 01:53:45;;;;;;;10.47;4.00;;;4.70;1.00;;;;;;4992530;28;20204;-84
2023/05/03 01:56:12;;;;;;;8.10;4.07;;;4.70;1.00;;;;;;4992725;28;20197;-85
2023/05/03 01:58:40;;;;;;;22.47;15.33;;;4.70;1.00;;;;;;4992063;28;20227;-85
2023/05/03 02:01:07;;;;;;;10.47;3.90;;;4.60;1.00;;;;;;4992550;28;21788;-84
2023/05/03 02:03:34;;;;;;;8.07;4.40;;;4.60;1.00;;;;;;4994519;28;20684;-85
2023/05/03 02:06:01;;;;;;;9.27;3.67;;;4.60;1.00;;;;;;4996720;28;20562;-84
2023/05/03 02:08:27;;;;;;;10.57;4.27;;;4.60;1.00;;;;;;4995646;28;20223;-85
2023/05/03 02:10:54;;;;;;;11.37;5.50;;;4.60;1.00;;;;;;4996830;28;20570;-84
2023/05/03 02:13:21;;;;;;;10.93;6.73;;;4.50;1.00;;;;;;4996866;28;20191;-84
2023/05/03 02:15:49;;;;;;;9.30;5.30;;;4.50;1.00;;;;;;4997052;28;20191;-84
2023/05/03 02:18:18;;;;;;;9.63;5.40;;;4.40;1.00;;;;;;4996450;28;20195;-84
2023/05/03 02:20:45;;;;;;;8.40;5.13;;;4.40;1.00;;;;;;4996455;28;20261;-85
2023/05/03 02:23:12;;;;;;;7.90;4.97;;;4.40;1.00;;;;;;4995713;28;20199;-84
2023/05/03 02:25:39;;;;;;;10.90;5.00;;;4.30;1.00;;;;;;4995449;28;20195;-84
2023/05/03 02:28:06;;;;;;;11.77;6.23;;;4.30;1.00;;;;;;4996783;28;20218;-84
2023/05/03 02:30:34;;;;;;;8.80;5.00;;;4.30;1.00;;;;;;4995442;28;20187;-84
2023/05/03 02:33:03;;;;;;;8.03;4.20;;;4.30;1.00;;;;;;4995612;28;20203;-84
2023/05/03 02:35:30;;;;;;;12.27;6.60;;;4.30;1.00;;;;;;4996195;28;20199;-84
2023/05/03 02:37:56;;;;;;;12.37;6.30;;;4.30;1.00;;;;;;4996068;28;20593;-84
2023/05/03 02:40:23;;;;;;;8.77;4.00;;;4.30;1.00;;;;;;4995895;28;20195;-84
2023/05/03 02:42:50;;;;;;;58.53;26.70;;;4.30;1.00;;;;;;4996270;28;20233;-84
2023/05/03 02:45:17;;;;;;;16.40;9.33;;;4.30;1.00;;;;;;4996105;28;20201;-84
2023/05/03 02:47:44;;;;;;;117.97;57.37;;;4.30;1.00;;;;;;4995469;28;20237;-84
2023/05/03 02:50:12;;;;;;;118.30;58.03;;;4.30;1.00;;;;;;4995832;28;20195;-84
2023/05/03 02:52:39;;;;;;;124.93;61.10;;;4.30;1.00;;;;;;4995119;28;20225;-84
2023/05/03 02:55:06;;;;;;;86.03;45.10;;;4.30;1.00;;;;;;4996322;28;20198;-84
2023/05/03 02:57:33;;;;;;;30.00;14.93;;;4.30;1.00;;;;;;4995429;28;20198;-84
2023/05/03 03:00:00;;;;;;;53.77;24.27;;;4.30;1.00;;;;;;4995568;28;20546;-84
2023/05/03 03:02:27;;;;;;;109.97;41.03;;;4.30;1.00;;;;;;4995379;28;20205;-84
2023/05/03 03:04:53;;;;;;;50.70;19.90;;;4.20;1.00;;;;;;4995716;28;20195;-84
2023/05/03 03:07:21;;;;;;;69.53;27.13;;;4.20;1.00;;;;;;4995823;28;20560;-84
2023/05/03 03:09:48;;;;;;;38.40;16.00;;;4.20;19.20;;;;;;4993697;28;20225;-84
2023/05/03 03:12:15;;;;;;;77.43;30.53;;;4.20;7.50;;;;;;4995606;28;20203;-84
2023/05/03 03:14:44;;;;;;;136.10;46.93;;;4.10;38.20;;;;;;4995348;28;20206;-84
2023/05/03 03:17:11;;;;;;;20.67;10.97;;;4.10;62.60;;;;;;4995239;28;20195;-84
2023/05/03 03:19:38;;;;;;;8.70;4.90;;;4.10;71.80;;;;;;4995165;28;20603;-84
2023/05/03 03:22:05;;;;;;;6.87;4.30;;;4.10;77.90;;;;;;4995924;28;20651;-84
2023/05/03 03:24:34;;;;;;;8.20;5.30;;;4.10;90.20;;;;;;4995205;28;20257;-84
2023/05/03 03:27:01;;;;;;;7.40;4.00;;;4.20;99.90;;;;;;4995243;28;20282;-84
2023/05/03 03:29:31;;;;;;;7.97;4.20;;;4.20;99.90;;;;;;4995207;28;20214;-84
2023/05/03 03:31:58;;;;;;;8.03;4.17;;;4.30;99.90;;;;;;4995016;28;20201;-84
2023/05/03 03:34:25;;;;;;;10.60;4.10;;;4.30;88.60;;;;;;4995136;28;20190;-84
2023/05/03 03:36:52;;;;;;;7.90;4.40;;;4.40;54.00;;;;;;4995458;28;20202;-84
2023/05/03 03:39:19;;;;;;;10.67;4.57;;;4.50;32.40;;;;;;4994626;28;20663;-83
2023/05/03 03:41:47;;;;;;;8.40;4.27;;;4.50;27.30;;;;;;4994685;28;20247;-84
2023/05/03 03:44:14;;;;;;;8.67;4.00;;;4.60;16.30;;;;;;4994753;28;20199;-84
2023/05/03 03:46:40;;;;;;;8.73;5.50;;;4.60;1.00;;;;;;4994574;28;20209;-84
2023/05/03 03:49:07;;;;;;;14.00;7.43;;;4.70;1.00;;;;;;4995376;28;20218;-84
2023/05/03 03:51:34;;;;;;;7.03;5.13;;;4.70;1.00;;;;;;4994796;28;20249;-84
2023/05/03 03:54:01;;;;;;;24.67;14.40;;;4.70;1.00;;;;;;4994290;28;20213;-84
2023/05/03 03:56:28;;;;;;;64.53;31.73;;;4.70;1.00;;;;;;4994532;28;20199;-83
2023/05/03 03:58:56;;;;;;;112.20;46.90;;;4.70;1.00;;;;;;4994940;28;20201;-84
2023/05/03 04:01:23;;;;;;;75.57;35.70;;;4.70;40.30;;;;;;4994411;28;20604;-84
2023/05/03 04:03:50;;;;;;;197.87;103.43;;;4.70;23.70;;;;;;4995109;28;20199;-84
2023/05/03 04:06:16;;;;;;;72.60;41.47;;;4.80;99.90;;;;;;4994323;28;20194;-84
2023/05/03 04:08:43;;;;;;;65.93;36.27;;;5.00;99.90;;;;;;4994204;28;20224;-84
2023/05/03 04:11:11;;;;;;;131.70;71.87;;;5.40;99.90;;;;;;4994644;28;20196;-84
2023/05/03 04:13:38;;;;;;;60.77;32.77;;;5.80;99.90;;;;;;4978936;28;20592;-85
2023/05/03 04:16:07;;;;;;;37.37;21.60;;;6.20;12.90;;;;;;4990327;28;20203;-84
2023/05/03 04:18:34;;;;;;;33.80;18.60;;;6.40;1.00;;;;;;4994230;28;20783;-84
2023/05/03 04:21:00;;;;;;;192.80;92.47;;;6.60;1.00;;;;;;4994447;28;20195;-85
2023/05/03 04:23:27;;;;;;;140.07;64.33;;;6.60;1.00;;;;;;4994125;28;20197;-84
2023/05/03 04:25:56;;;;;;;49.13;23.27;;;6.60;1.00;;;;;;4993448;28;20202;-84
2023/05/03 04:28:24;;;;;;;68.50;30.60;;;6.60;1.00;;;;;;4994402;28;20252;-85
2023/05/03 04:30:52;;;;;;;35.70;16.77;;;6.70;1.00;;;;;;4993885;28;20205;-85
2023/05/03 04:33:20;;;;;;;19.90;8.87;;;6.80;1.00;;;;;;4994069;28;20224;-84
2023/05/03 04:35:49;;;;;;;17.57;7.30;;;6.90;1.00;;;;;;4993823;28;20199;-84
2023/05/03 04:38:17;;;;;;;28.67;14.33;;;7.10;1.00;;;;;;4993815;28;20198;-84
2023/05/03 04:40:44;;;;;;;152.57;73.00;;;7.30;1.00;;;;;;4993695;28;20240;-84
2023/05/03 04:43:11;;;;;;;55.17;22.17;;;7.40;1.00;;;;;;4993725;28;20674;-84
2023/05/03 04:45:38;;;;;;;38.33;17.00;;;7.50;1.00;;;;;;4993900;28;20206;-85
2023/05/03 04:48:05;;;;;;;19.90;9.27;;;7.50;1.00;;;;;;4993723;28;20205;-85
2023/05/03 04:50:34;;;;;;;15.70;6.97;;;7.60;1.00;;;;;;4993443;28;20230;-85
2023/05/03 04:53:01;;;;;;;16.60;10.90;;;7.70;1.00;;;;;;4993866;28;20199;-84
2023/05/03 04:55:28;;;;;;;43.57;25.07;;;7.80;1.00;;;;;;4993241;28;20209;-85
2023/05/03 04:57:55;;;;;;;94.17;38.90;;;7.80;1.00;;;;;;4993849;28;20198;-85
2023/05/03 05:00:22;;;;;;;29.57;12.43;;;7.70;1.00;;;;;;4993385;28;20198;-85
2023/05/03 05:02:49;;;;;;;61.67;28.70;;;7.60;1.00;;;;;;4993067;28;20723;-85
2023/05/03 05:05:16;;;;;;;77.07;32.40;;;7.60;1.00;;;;;;4993491;28;20210;-85
2023/05/03 05:07:44;;;;;;;30.27;12.90;;;7.60;1.00;;;;;;4993379;28;20543;-85
2023/05/03 05:10:11;;;;;;;22.73;10.50;;;7.60;1.00;;;;;;4993588;28;20217;-84
2023/05/03 05:12:38;;;;;;;46.60;19.80;;;7.60;1.00;;;;;;4993158;28;20206;-84
2023/05/03 05:15:06;;;;;;;38.53;16.90;;;7.70;1.00;;;;;;4993027;28;20565;-85
2023/05/03 05:17:33;;;;;;;42.30;17.73;;;7.70;1.00;;;;;;4993475;28;20199;-85
2023/05/03 05:20:00;;;;;;;43.60;20.23;;;7.80;1.00;;;;;;4993142;28;20200;-85
2023/05/03 05:22:27;;;;;;;81.23;31.30;;;7.90;1.00;;;;;;4993288;28;20199;-85
2023/05/03 05:24:55;;;;;;;39.60;15.83;;;8.00;1.00;;;;;;4993584;28;20317;-85
2023/05/03 05:27:22;;;;;;;38.23;15.37;;;8.00;1.00;;;;;;4992686;28;20206;-85
2023/05/03 05:29:49;;;;;;;58.03;22.90;;;8.10;1.00;;;;;;4993095;28;20225;-84
2023/05/03 05:32:16;;;;;;;35.23;14.13;;;8.20;1.00;;;;;;4993167;28;20196;-85
2023/05/03 05:34:44;;;;;;;36.03;14.30;;;8.30;1.00;;;;;;4993163;28;20271;-84
2023/05/03 05:37:11;;;;;;;47.40;16.73;;;8.40;1.00;;;;;;4992368;28;20202;-85
2023/05/03 05:39:38;;;;;;;19.00;10.10;;;8.40;1.00;;;;;;4992119;28;20188;-85
2023/05/03 05:42:06;;;;;;;31.60;15.17;;;8.40;1.00;;;;;;4992609;28;20235;-85
2023/05/03 05:44:33;;;;;;;22.60;11.00;;;8.50;1.00;;;;;;4992862;28;20203;-85
2023/05/03 05:47:00;;;;;;;16.53;7.70;;;8.50;1.00;;;;;;4993089;28;20652;-85
2023/05/03 05:49:26;;;;;;;76.03;25.93;;;8.50;1.00;;;;;;4992906;28;20706;-85
2023/05/03 05:51:54;;;;;;;29.33;12.77;;;8.50;1.00;;;;;;4992821;28;20675;-85
2023/05/03 05:54:21;;;;;;;34.03;14.00;;;8.60;1.00;;;;;;4992527;28;20200;-84
2023/05/03 05:56:47;;;;;;;47.33;19.33;;;8.70;1.00;;;;;;4992388;28;20211;-85
2023/05/03 05:59:16;;;;;;;50.97;17.83;;;8.70;1.00;;;;;;4992878;28;20543;-85
2023/05/03 06:01:44;;;;;;;62.17;23.07;;;8.80;1.00;;;;;;4992991;28;20202;-87
2023/05/03 06:04:11;;;;;;;36.20;14.17;;;8.80;1.00;;;;;;4992184;28;20612;-86
2023/05/03 06:06:38;;;;;;;31.13;14.77;;;8.90;1.00;;;;;;4992317;28;20194;-85
2023/05/03 06:09:05;;;;;;;40.23;16.40;;;9.00;1.00;;;;;;4992296;28;20199;-86
2023/05/03 06:11:33;;;;;;;44.30;19.60;;;9.10;1.00;;;;;;4992504;28;20579;-85
2023/05/03 06:13:59;;;;;;;29.53;13.73;;;9.20;1.00;;;;;;4992303;28;20204;-86
2023/05/03 06:16:27;;;;;;;14.77;6.13;;;9.30;1.00;;;;;;4991914;28;20189;-86
2023/05/03 06:18:54;;;;;;;19.27;8.90;;;9.30;1.00;;;;;;4992702;28;20200;-85
2023/05/03 06:21:22;;;;;;;15.37;6.50;;;9.40;1.00;;;;;;4992492;28;20204;-85
2023/05/03 06:23:48;;;;;;;10.83;5.37;;;9.40;1.00;;;;;;4992031;28;20553;-84
2023/05/03 06:26:16;;;;;;;8.90;4.90;;;9.40;1.00;;;;;;4992569;28;20206;-85
2023/05/03 06:28:43;;;;;;;11.87;4.77;;;9.50;1.00;;;;;;4992225;28;20635;-85
2023/05/03 06:31:10;;;;;;;7.83;4.47;;;9.60;99.90;;;;;;4992673;28;20589;-84
2023/05/03 06:33:38;;;;;;;7.13;3.93;;;9.60;99.90;;;;;;4992401;28;20199;-85
2023/05/03 06:36:07;;;;;;;11.27;4.43;;;9.70;99.90;;;;;;4992499;28;20198;-86
2023/05/03 06:38:33;;;;;;;7.03;4.00;;;9.70;99.90;;;;;;4991446;28;20627;-86
2023/05/03 06:41:00;;;;;;;11.20;4.90;;;9.80;99.90;;;;;;4991765;28;20222;-86
2023/05/03 06:43:27;;;;;;;39.33;18.93;;;9.80;1.00;;;;;;4992006;28;20194;-85
2023/05/03 06:45:54;;;;;;;22.93;10.60;;;9.90;1.00;;;;;;4992984;28;20196;-86
2023/05/03 06:48:21;;;;;;;31.60;13.53;;;10.00;1.00;;;;;;4991790;28;20205;-86
2023/05/03 06:50:49;;;;;;;20.20;10.43;;;10.10;1.00;;;;;;4995804;28;20624;-86
2023/05/03 06:53:16;;;;;;;14.17;6.97;;;10.10;1.00;;;;;;4995390;28;20237;-86
2023/05/03 06:55:44;;;;;;;39.07;19.73;;;10.20;99.90;;;;;;4994838;28;20203;-85
2023/05/03 06:58:11;;;;;;;17.17;10.13;;;10.30;99.90;;;;;;4996033;28;20196;-86
2023/05/03 07:00:38;;;;;;;12.47;6.40;;;10.40;1.00;;;;;;4995284;28;20205;-86
2023/05/03 07:03:05;;;;;;;11.70;7.53;;;10.50;1.00;;;;;;4995497;28;20201;-85
2023/05/03 07:05:32;;;;;;;19.13;11.27;;;10.50;99.90;;;;;;4995520;28;20199;-86
2023/05/03 07:08:00;;;;;;;13.00;4.93;;;10.60;99.90;;;;;;4995622;28;20195;-87
2023/05/03 07:10:29;;;;;;;14.00;6.93;;;10.70;1.00;;;;;;4994541;28;20218;-87
2023/05/03 07:12:56;;;;;;;11.23;5.80;;;10.70;24.10;;;;;;4994480;28;20242;-86
2023/05/03 07:15:23;;;;;;;18.13;11.30;;;10.80;99.90;;;;;;4995824;28;20215;-87
2023/05/03 07:17:49;;;;;;;12.97;8.17;;;10.90;1.00;;;;;;4994647;28;20204;-86
2023/05/03 07:20:16;;;;;;;25.83;17.17;;;11.00;99.90;;;;;;4994093;28;20669;-86
2023/05/03 07:22:43;;;;;;;23.63;14.83;;;11.00;99.90;;;;;;4994815;28;20579;-87
2023/05/03 07:25:13;;;;;;;12.97;7.00;;;11.00;99.90;;;;;;4994981;28;20188;-86
2023/05/03 07:27:40;;;;;;;10.00;5.73;;;11.00;99.90;;;;;;4994543;28;20192;-86
2023/05/03 07:30:08;;;;;;;11.63;5.17;;;11.10;99.90;;;;;;4994580;28;20309;-86
2023/05/03 07:32:35;;;;;;;13.43;5.80;;;11.20;39.70;;;;;;4994884;28;20313;-86
2023/05/03 07:35:02;;;;;;;13.63;4.87;;;11.20;1.00;;;;;;4994454;28;20256;-86
2023/05/03 07:37:29;;;;;;;7.77;4.27;;;11.20;44.90;;;;;;4993855;28;20197;-86
2023/05/03 07:39:55;;;;;;;10.47;4.90;;;11.30;1.00;;;;;;4994492;28;20193;-86
2023/05/03 07:42:24;;;;;;;11.50;6.77;;;11.40;1.00;;;;;;4994976;28;20229;-86
2023/05/03 07:44:50;;;;;;;9.60;5.80;;;11.40;1.00;;;;;;4994788;28;20206;-85
2023/05/03 07:47:17;;;;;;;11.97;6.70;;;11.50;1.00;;;;;;4994449;28;20221;-86
2023/05/03 07:49:44;;;;;;;25.67;13.50;;;11.60;1.00;;;;;;4994597;28;20211;-85
2023/05/03 07:52:11;;;;;;;13.63;5.23;;;11.60;1.00;;;;;;4994246;28;20191;-86
2023/05/03 07:54:38;;;;;;;16.80;8.37;;;11.70;1.00;;;;;;4994418;28;20204;-86
2023/05/03 07:57:05;;;;;;;14.50;7.53;;;11.80;99.90;;;;;;4994426;28;20212;-86
2023/05/03 07:59:33;;;;;;;12.97;4.40;;;11.80;57.30;;;;;;4994739;28;20193;-86
2023/05/03 08:02:00;;;;;;;11.87;3.97;;;11.90;47.70;;;;;;4993531;28;20199;-86
2023/05/03 08:04:27;;;;;;;10.20;3.60;;;12.00;1.00;;;;;;4993909;28;20665;-86
2023/05/03 08:06:53;;;;;;;8.90;4.10;;;12.10;1.00;;;;;;4991624;28;20543;-85
2023/05/03 08:09:20;;;;;;;11.50;5.10;;;12.20;1.00;;;;;;4992836;28;20225;-86
2023/05/03 08:11:47;;;;;;;9.53;4.87;;;12.20;1.00;;;;;;4991923;28;20214;-85
2023/05/03 08:14:14;;;;;;;10.03;4.80;;;12.30;1.00;;;;;;4992143;28;20282;-86
2023/05/03 08:16:42;;;;;;;8.90;4.07;;;12.40;1.00;;;;;;4990684;28;20209;-85
2023/05/03 08:19:09;;;;;;;16.47;9.83;;;12.50;1.00;;;;;;4993024;28;20541;-85
2023/05/03 08:21:36;;;;;;;8.00;3.60;;;12.60;1.00;;;;;;4992086;28;20725;-86
2023/05/03 08:24:05;;;;;;;11.97;6.63;;;12.70;99.90;;;;;;4991500;28;20206;-85
2023/05/03 08:26:32;;;;;;;12.17;4.37;;;12.80;99.90;;;;;;4994354;28;20242;-86
2023/05/03 08:28:59;;;;;;;8.50;5.17;;;12.90;99.90;;;;;;4994292;28;20283;-86
2023/05/03 08:31:26;;;;;;;8.37;3.37;;;13.10;14.70;;;;;;4994062;28;20252;-85
2023/05/03 08:33:54;;;;;;;9.10;4.30;;;13.20;1.00;;;;;;4992516;28;20659;-85
2023/05/03 08:36:21;;;;;;;6.63;3.50;;;13.30;1.00;;;;;;4993886;28;20215;-86
2023/05/03 08:38:49;;;;;;;18.67;8.97;;;13.50;1.00;;;;;;4994126;28;20622;-85
2023/05/03 08:41:22;;;;;;;15.13;7.43;;;13.60;1.00;;;;;;4993264;28;20221;-86
2023/05/03 08:43:53;;;;;;;5.87;2.87;;;13.60;1.00;;;;;;4989520;28;20255;-85
2023/05/03 08:46:20;;;;;;;6.97;2.40;;;13.60;1.00;;;;;;4994135;28;20188;-86
2023/05/03 08:48:48;;;;;;;7.47;4.30;;;13.60;1.00;;;;;;4992866;28;20209;-85
2023/05/03 08:51:18;;;;;;;11.93;5.30;;;13.70;1.00;;;;;;4993834;28;20565;-86
2023/05/03 08:53:45;;;;;;;17.47;5.27;;;13.70;1.00;;;;;;4992897;28;20208;-85
2023/05/03 08:56:20;;;;;;;22.87;9.63;;;13.90;1.00;;;;;;4993185;28;20209;-86
2023/05/03 08:58:46;;;;;;;21.10;10.67;;;13.90;1.00;;;;;;4993684;28;20573;-86
2023/05/03 09:01:13;;;;;;;11.93;6.97;;;13.90;1.00;;;;;;4993794;28;20205;-86
2023/05/03 09:03:46;;;;;;;37.53;19.47;;;13.90;1.00;;;;;;4991842;28;20217;-86
2023/05/03 09:06:21;;;;;;;7.63;4.53;;;14.00;1.00;;;;;;4992135;28;20260;-86
2023/05/03 09:08:48;;;;;;;11.63;5.83;;;14.10;1.00;;;;;;4992507;28;20200;-86
2023/05/03 09:11:21;;;;;;;5.83;2.80;;;14.30;1.00;;;;;;4992937;28;20222;-86
2023/05/03 09:13:48;;;;;;;8.20;5.47;;;14.60;1.00;;;;;;4978415;28;20254;-86
2023/05/03 09:16:23;;;;;;;9.20;4.43;;;14.90;1.00;;;;;;4992296;28;20206;-85
2023/05/03 09:19:00;;;;;;;6.22;3.55;;;15.20;1.00;;;;;;4991926;28;20201;-87
2023/05/03 09:21:30;;;;;;;5.47;2.80;;;15.50;99.90;;;;;;4991327;28;20200;-85
2023/05/03 09:23:57;;;;;;;4.70;2.75;;;15.60;99.90;;;;;;4993140;28;20845;-86
2023/05/03 09:26:31;;;;;;;4.32;2.42;;;15.60;99.90;;;;;;4993387;28;20189;-86
2023/05/03 09:28:59;;;;;;;4.95;2.80;;;15.50;99.90;;;;;;4992956;28;20196;-86
2023/05/03 09:31:28;;;;;;;5.75;2.72;;;15.40;99.90;;;;;;4993192;28;20217;-86
2023/05/03 09:33:55;;;;;;;7.30;3.50;;;15.40;99.90;;;;;;4991382;28;20208;-85
2023/05/03 09:36:22;;;;;;;8.18;2.75;;;15.50;99.90;;;;;;4992162;28;20545;-86
2023/05/03 09:38:50;;;;;;;7.57;3.20;;;15.50;99.90;;;;;;4993053;28;20231;-87
2023/05/03 09:41:26;;;;;;;7.47;3.20;;;15.60;99.90;;;;;;4991299;28;20225;-86
2023/05/03 09:43:55;;;;;;;7.60;3.90;;;15.70;99.90;;;;;;4980757;28;20213;-87
2023/05/03 09:46:23;;;;;;;7.25;3.08;;;15.70;99.90;;;;;;4977726;28;20650;-86
2023/05/03 09:48:53;;;;;;;4.60;2.70;;;15.60;99.90;;;;;;4986910;28;20210;-87
2023/05/03 09:51:21;;;;;;;9.05;5.50;;;15.70;99.90;;;;;;4987354;28;20309;-86
2023/05/03 09:53:50;;;;;;;5.78;3.30;;;16.00;99.90;;;;;;4981380;28;20199;-86
2023/05/03 09:56:19;;;;;;;10.45;6.22;;;16.40;99.90;;;;;;4977694;28;20207;-86
2023/05/03 09:58:46;;;;;;;6.85;4.05;;;16.60;99.90;;;;;;4990378;28;20258;-86
2023/05/03 10:01:14;;;;;;;6.85;3.10;;;16.80;99.90;;;;;;4987654;28;20202;-86
2023/05/03 10:03:44;;;;;;;3.17;2.28;;;17.00;99.90;;;;;;4984165;28;20294;-86
2023/05/03 10:06:22;;;;;;;4.80;3.83;;;17.20;99.90;;;;;;4984707;28;20213;-86
2023/05/03 10:08:53;;;;;;;6.43;2.53;;;17.30;99.90;;;;;;4984733;28;20195;-86
2023/05/03 10:11:25;;;;;;;8.35;2.78;;;17.30;99.90;;;;;;4990952;28;20304;-86
2023/05/03 10:13:52;;;;;;;7.03;2.60;;;17.30;99.90;;;;;;4981935;28;20207;-86
2023/05/03 10:16:24;;;;;;;6.93;2.92;;;17.10;99.90;;;;;;4976693;28;20214;-87
2023/05/03 10:18:56;;;;;;;5.47;2.88;;;16.70;99.90;;;;;;4980274;28;20203;-86
2023/05/03 10:21:38;;;;;;;6.22;3.42;;;16.10;99.90;;;;;;4984289;28;20191;-86
2023/05/03 10:24:13;;;;;;;7.25;3.22;;;15.60;99.90;;;;;;4986290;28;20284;-86
2023/05/03 10:26:41;;;;;;;5.82;2.40;;;15.20;99.90;;;;;;4985418;28;20203;-86
2023/05/03 10:29:46;;;;;;;5.45;2.25;;;15.10;99.90;;;;;;4982634;28;20209;-86
2023/05/03 10:32:29;;;;;;;6.78;5.72;;;15.20;99.90;;;;;;4988789;28;20213;-87
2023/05/03 10:34:57;;;;;;;6.35;2.80;;;15.30;99.90;;;;;;4992504;28;20197;-86
2023/05/03 10:37:26;;;;;;;5.55;3.47;;;15.30;99.90;;;;;;4993549;28;20225;-86
2023/05/03 10:39:55;;;;;;;4.90;2.53;;;15.50;99.90;;;;;;4994031;28;20288;-86
2023/05/03 10:42:24;;;;;;;9.93;4.68;;;15.60;99.90;;;;;;4998270;28;20654;-87
2023/05/03 10:44:52;;;;;;;3.25;2.50;;;15.70;99.90;;;;;;4997367;28;20205;-87
2023/05/03 10:47:21;;;;;;;7.57;3.95;;;15.90;99.90;;;;;;4998214;28;20206;-87
2023/05/03 10:50:08;;;;;;;24.65;13.93;;;16.40;99.90;;;;;;4997742;28;20286;-87
2023/05/03 10:52:50;;;;;;;24.15;10.98;;;16.70;99.90;;;;;;4996631;28;20229;-87
2023/05/03 10:55:20;;;;;;;13.52;7.30;;;16.90;99.90;;;;;;4996679;28;20546;-87
2023/05/03 10:57:49;;;;;;;15.13;5.57;;;17.20;99.90;;;;;;4996019;28;20195;-87
2023/05/03 11:00:21;;;;;;;17.13;6.07;;;17.50;99.90;;;;;;4996714;28;20203;-88
2023/05/03 11:03:24;;;;;;;7.72;3.40;;;17.70;99.90;;;;;;4996741;28;20199;-89
2023/05/03 11:05:52;;;;;;;9.10;2.75;;;17.80;99.90;;;;;;4996650;28;20313;-87
2023/05/03 11:08:20;;;;;;;11.20;4.30;;;17.90;99.90;;;;;;4996303;28;20199;-87
2023/05/03 11:10:50;;;;;;;4.43;2.17;;;17.50;99.90;;;;;;4996474;28;20289;-87
2023/05/03 11:13:17;;;;;;;8.38;2.97;;;17.00;99.90;;;;;;4995808;28;20752;-87
2023/05/03 11:15:44;;;;;;;8.48;2.83;;;16.50;99.90;;;;;;4995224;28;20666;-87
2023/05/03 11:18:11;;;;;;;5.43;2.90;;;16.30;99.90;;;;;;4995780;28;20202;-88
2023/05/03 11:20:38;;;;;;;7.45;3.15;;;16.20;99.90;;;;;;4995795;28;20262;-87
2023/05/03 11:23:05;;;;;;;6.20;3.95;;;16.30;99.90;;;;;;4995708;28;20648;-87
2023/05/03 11:25:33;;;;;;;13.52;8.48;;;16.50;99.90;;;;;;4995663;28;20208;-87
2023/05/03 11:28:02;;;;;;;3.65;2.50;;;16.70;99.90;;;;;;4995866;28;20222;-87
2023/05/03 11:30:32;;;;;;;3.63;2.17;;;16.80;99.90;;;;;;4994733;28;20195;-87
2023/05/03 11:33:00;;;;;;;3.30;1.70;;;17.10;99.90;;;;;;4995426;28;20202;-87
2023/05/03 11:35:29;;;;;;;3.95;2.10;;;17.30;99.90;;;;;;4993972;28;20197;-87
2023/05/03 11:37:56;;;;;;;8.48;2.70;;;17.70;99.90;;;;;;4995614;28;20269;-87
2023/05/03 11:40:24;;;;;;;6.13;3.08;;;18.10;99.90;;;;;;4994884;28;20203;-87
2023/05/03 11:42:53;;;;;;;4.88;2.40;;;17.90;99.90;;;;;;4995117;28;20215;-87
2023/05/03 11:45:23;;;;;;;4.60;2.13;;;17.80;99.90;;;;;;4993575;28;20195;-87
2023/05/03 11:47:50;;;;;;;12.57;6.00;;;17.50;99.90;;;;;;4995265;28;20198;-87
2023/05/03 11:50:17;;;;;;;5.45;2.78;;;17.30;99.90;;;;;;4995395;28;20668;-87
2023/05/03 11:52:44;;;;;;;3.70;2.30;;;17.20;99.90;;;;;;4994930;28;20218;-87
2023/05/03 11:55:12;;;;;;;3.63;2.10;;;17.10;99.90;;;;;;4995202;28;20218;-88
2023/05/03 11:57:38;;;;;;;4.53;1.85;;;17.10;99.90;;;;;;4994925;28;20728;-87
2023/05/03 12:00:15;;;;;;;5.28;2.60;;;17.10;99.90;;;;;;4994324;28;20663;-87
2023/05/03 12:02:44;;;;;;;4.57;2.20;;;17.20;99.90;;;;;;4995122;28;20219;-87
2023/05/03 12:05:12;;;;;;;3.47;2.03;;;17.20;99.90;;;;;;4994841;28;20251;-87
2023/05/03 12:07:39;;;;;;;7.00;2.97;;;17.20;99.90;;;;;;4994401;28;20676;-87
2023/05/03 12:10:15;;;;;;;6.53;3.60;;;17.30;99.90;;;;;;4995292;28;20203;-86
2023/05/03 12:12:52;;;;;;;6.97;2.60;;;17.20;99.90;;;;;;4994468;28;20300;-87
2023/05/03 12:15:30;;;;;;;7.07;3.75;;;17.10;99.90;;;;;;4994570;28;20205;-87
2023/05/03 12:18:00;;;;;;;17.98;9.90;;;17.10;99.90;;;;;;4994572;28;20562;-85
2023/05/03 12:20:30;;;;;;;11.25;5.50;;;17.40;99.90;;;;;;4993093;28;20195;-87
2023/05/03 12:23:01;;;;;;;16.83;9.18;;;17.70;99.90;;;;;;4993758;28;20194;-87
2023/05/03 12:25:28;;;;;;;10.15;5.32;;;17.90;99.90;;;;;;4993723;28;20253;-86
2023/05/03 12:27:57;;;;;;;6.88;3.42;;;18.20;99.90;;;;;;4993309;28;20560;-87
2023/05/03 12:30:24;;;;;;;8.23;3.40;;;18.40;99.90;;;;;;4994100;28;20249;-87
2023/05/03 12:32:51;;;;;;;7.32;2.95;;;18.40;99.90;;;;;;4992617;28;20762;-87
2023/05/03 12:35:20;;;;;;;7.00;3.90;;;18.30;99.90;;;;;;4993877;28;20191;-87
2023/05/03 12:37:48;;;;;;;3.45;2.30;;;18.20;99.90;;;;;;4977593;28;20194;-86
2023/05/03 12:40:15;;;;;;;10.63;5.78;;;18.20;99.90;;;;;;4989097;28;20192;-87
2023/05/03 12:42:42;;;;;;;4.78;2.35;;;18.20;99.90;;;;;;4993401;28;20227;-87
2023/05/03 12:45:11;;;;;;;6.75;2.20;;;18.40;99.90;;;;;;4993490;28;20198;-87
2023/05/03 12:47:37;;;;;;;4.07;2.22;;;18.40;99.90;;;;;;4993488;28;20744;-86
2023/05/03 12:50:05;;;;;;;4.63;2.35;;;18.30;99.90;;;;;;4993854;28;20202;-86
2023/05/03 12:52:33;;;;;;;7.03;3.35;;;18.20;99.90;;;;;;4993599;28;20210;-86
2023/05/03 12:55:00;;;;;;;4.30;2.28;;;18.20;99.90;;;;;;4991947;28;20202;-86
2023/05/03 12:57:27;;;;;;;4.15;2.33;;;18.00;99.90;;;;;;4993426;28;20203;-85